Time;durP1;ratioP1;P1;durP2;ratioP2;P2;SDS_P1;SDS_P2;PMS_P1;PMS_P2;Temp;Humidity;BMP_temperature;BMP_pressure;BME280_temperature;BME280_humidity;BME280_pressure;Samples;Min_cycle;Max_cycle;Signal;HPM_P1;HPM_P2
2022/09/08 00:02:25;;;;;;;18.35;9.40;;;;;;;16.49;81.03;95175.47;5090716;28;20201;-74
2022/09/08 00:04:51;;;;;;;12.80;7.97;;;;;;;16.48;80.92;95169.34;5090363;28;20263;-74
2022/09/08 00:07:18;;;;;;;9.45;5.78;;;;;;;16.42;80.83;95170.31;5089778;28;20182;-74
2022/09/08 00:09:44;;;;;;;13.60;7.22;;;;;;;16.39;81.28;95169.97;5090656;28;20243;-73
2022/09/08 00:12:12;;;;;;;15.65;6.32;;;;;;;16.38;81.34;95185.09;5090626;28;20315;-74
2022/09/08 00:14:37;;;;;;;9.63;6.90;;;;;;;16.39;81.17;95185.91;5090484;28;20181;-74
2022/09/08 00:17:03;;;;;;;13.45;6.32;;;;;;;16.37;81.29;95180.84;5090427;28;20716;-74
2022/09/08 00:19:30;;;;;;;13.25;6.15;;;;;;;16.30;80.93;95166.09;5090539;28;20178;-74
2022/09/08 00:21:56;;;;;;;17.60;7.07;;;;;;;16.30;80.83;95172.22;5090225;28;20180;-74
2022/09/08 00:24:22;;;;;;;33.75;14.98;;;;;;;16.33;81.15;95178.91;5090370;28;20193;-74
2022/09/08 00:26:48;;;;;;;56.55;22.48;;;;;;;16.26;81.57;95180.91;5090371;28;20219;-74
2022/09/08 00:29:13;;;;;;;59.80;24.23;;;;;;;16.03;81.93;95153.38;5090859;28;20607;-74
2022/09/08 00:31:40;;;;;;;59.67;24.77;;;;;;;15.89;81.83;95136.13;5090501;28;20235;-74
2022/09/08 00:34:05;;;;;;;50.50;23.35;;;;;;;16.12;82.17;95169.75;5090295;28;20181;-74
2022/09/08 00:36:31;;;;;;;57.83;24.13;;;;;;;16.14;82.22;95179.09;5090371;28;20174;-74
2022/09/08 00:38:58;;;;;;;74.78;29.38;;;;;;;16.12;82.17;95175.88;5090340;28;20221;-74
2022/09/08 00:41:24;;;;;;;64.78;27.92;;;;;;;16.08;82.05;95184.56;5090206;28;20261;-74
2022/09/08 00:44:02;;;;;;;59.85;28.38;;;;;;;16.02;82.54;95186.28;5090451;28;20258;-74
2022/09/08 00:46:33;;;;;;;30.83;15.73;;;;;;;15.95;82.61;95188.28;5090273;28;20632;-74
2022/09/08 00:49:06;;;;;;;50.65;22.45;;;;;;;15.88;82.96;95179.66;5090310;28;20749;-74
2022/09/08 00:51:32;;;;;;;56.95;25.15;;;;;;;15.79;83.32;95171.25;5090345;28;20305;-74
2022/09/08 00:53:58;;;;;;;54.22;24.77;;;;;;;15.85;83.68;95180.09;5090516;28;20272;-74
2022/09/08 00:56:25;;;;;;;50.63;22.80;;;;;;;15.86;83.42;95179.06;5090034;28;20232;-74
2022/09/08 00:58:51;;;;;;;46.47;21.33;;;;;;;15.88;83.33;95190.28;5090307;28;20694;-74
2022/09/08 01:01:17;;;;;;;33.88;18.70;;;;;;;15.84;83.38;95183.81;5090326;28;20173;-74
2022/09/08 01:03:43;;;;;;;29.55;14.10;;;;;;;15.85;83.54;95185.41;5089947;28;20185;-74
2022/09/08 01:06:20;;;;;;;28.10;14.65;;;;;;;15.83;83.41;95187.50;5090082;28;20174;-75
2022/09/08 01:14:53;;;;;;;28.00;13.60;;;;;;;15.72;83.73;95172.41;5090077;28;20242;-74
2022/09/08 01:17:26;;;;;;;24.65;11.43;;;;;;;15.72;83.76;95169.78;5090627;28;20196;-74
2022/09/08 01:19:52;;;;;;;16.10;10.10;;;;;;;15.70;83.95;95177.16;5093861;28;20256;-74
2022/09/08 01:22:27;;;;;;;22.38;11.65;;;;;;;15.70;83.81;95177.16;5093540;28;20181;-74
2022/09/08 01:25:04;;;;;;;23.85;11.35;;;;;;;15.69;83.80;95178.19;5093414;28;20685;-74
2022/09/08 01:27:31;;;;;;;23.83;11.90;;;;;;;15.65;83.88;95172.56;5093314;28;20180;-74
2022/09/08 01:30:01;;;;;;;22.35;11.38;;;;;;;15.63;84.09;95174.63;5093624;28;20173;-74
2022/09/08 01:32:30;;;;;;;19.57;10.70;;;;;;;15.59;84.26;95175.31;5093397;28;20192;-74
2022/09/08 01:34:56;;;;;;;23.00;10.52;;;;;;;15.41;84.18;95155.00;5093455;28;20222;-74
2022/09/08 01:37:21;;;;;;;16.73;10.50;;;;;;;15.53;84.71;95184.19;5093402;28;20177;-74
2022/09/08 01:39:46;;;;;;;16.07;10.10;;;;;;;15.42;84.44;95159.28;5092699;28;20213;-74
2022/09/08 01:42:12;;;;;;;17.83;9.25;;;;;;;15.49;84.13;95182.00;5092727;28;20204;-74
2022/09/08 01:44:37;;;;;;;20.20;9.90;;;;;;;15.27;84.34;95149.16;5092681;28;20743;-74
2022/09/08 01:47:03;;;;;;;16.00;9.70;;;;;;;15.44;84.34;95176.59;5092768;28;20178;-74
2022/09/08 01:49:28;;;;;;;25.17;13.23;;;;;;;15.47;84.23;95172.69;5092819;28;20667;-74
2022/09/08 01:51:53;;;;;;;24.10;12.63;;;;;;;15.44;84.28;95178.44;5092836;28;20251;-74
2022/09/08 01:54:19;;;;;;;25.73;13.30;;;;;;;15.43;84.60;95180.28;5092847;28;20174;-74
2022/09/08 01:56:44;;;;;;;24.20;13.43;;;;;;;15.43;84.62;95188.25;5092844;28;20676;-74
2022/09/08 01:59:10;;;;;;;26.30;13.65;;;;;;;15.41;84.86;95179.69;5092787;28;20197;-74
2022/09/08 02:01:35;;;;;;;30.05;13.98;;;;;;;15.44;84.57;95176.59;5092795;28;20170;-74
2022/09/08 02:04:01;;;;;;;27.58;11.95;;;;;;;15.42;84.10;95173.34;5092939;28;20204;-74
2022/09/08 02:06:27;;;;;;;19.40;10.97;;;;;;;15.36;84.93;95168.19;5092702;28;20283;-74
2022/09/08 02:08:53;;;;;;;21.90;10.85;;;;;;;15.38;84.63;95163.47;5092986;28;20949;-74
2022/09/08 02:11:19;;;;;;;19.63;10.93;;;;;;;15.40;84.51;95161.34;5092933;28;20181;-74
2022/09/08 02:13:45;;;;;;;13.45;9.38;;;;;;;15.37;84.73;95157.34;5092852;28;20181;-74
2022/09/08 02:16:11;;;;;;;10.57;7.28;;;;;;;15.36;84.15;95161.03;5092572;28;20170;-74
2022/09/08 02:18:38;;;;;;;9.35;6.30;;;;;;;15.31;83.81;95158.25;5092551;28;20275;-74
2022/09/08 02:21:09;;;;;;;11.45;6.93;;;;;;;15.29;83.95;95165.66;5092703;28;20174;-74
2022/09/08 02:23:36;;;;;;;9.73;6.40;;;;;;;15.27;84.17;95159.78;5092622;28;20959;-74
2022/09/08 02:26:03;;;;;;;11.48;6.40;;;;;;;15.22;84.04;95157.00;5092537;28;20566;-74
2022/09/08 02:28:29;;;;;;;9.40;5.90;;;;;;;15.21;84.10;95158.06;5092206;28;20676;-74
2022/09/08 02:31:01;;;;;;;29.48;15.73;;;;;;;15.19;84.11;95154.81;5092236;28;20174;-74
2022/09/08 02:33:28;;;;;;;17.95;9.32;;;;;;;15.23;83.97;95158.59;5092299;28;20193;-74
2022/09/08 02:35:54;;;;;;;18.83;10.77;;;;;;;15.29;84.22;95159.53;5092002;28;20173;-75
2022/09/08 02:38:21;;;;;;;21.48;12.02;;;;;;;15.27;84.27;95154.47;5091914;28;20591;-75
2022/09/08 02:40:46;;;;;;;30.70;16.45;;;;;;;15.25;84.16;95153.06;5091603;28;20184;-74
2022/09/08 02:43:12;;;;;;;28.57;15.50;;;;;;;15.25;84.15;95156.53;5092041;28;20676;-74
2022/09/08 02:45:39;;;;;;;21.85;11.10;;;;;;;15.20;84.07;95148.47;5092272;28;20376;-74
2022/09/08 02:48:05;;;;;;;19.35;11.38;;;;;;;15.27;83.89;95157.13;5092305;28;20946;-74
2022/09/08 02:50:30;;;;;;;18.93;12.40;;;;;;;15.26;83.98;95160.00;5092095;28;20177;-74
2022/09/08 02:52:56;;;;;;;16.80;10.07;;;;;;;15.27;84.27;95156.31;5073676;28;20174;-74
2022/09/08 02:55:23;;;;;;;18.00;10.20;;;;;;;15.25;84.04;95156.53;5091917;28;20169;-74
2022/09/08 02:57:49;;;;;;;11.95;6.85;;;;;;;15.25;83.79;95153.06;5091721;28;20315;-74
2022/09/08 03:00:15;;;;;;;13.70;7.68;;;;;;;15.22;83.95;95146.38;5091790;28;20177;-75
2022/09/08 03:02:40;;;;;;;11.75;7.07;;;;;;;15.18;83.83;95150.56;5091865;28;20557;-74
2022/09/08 03:05:06;;;;;;;9.20;6.15;;;;;;;15.11;84.10;95141.91;5091572;28;20189;-74
2022/09/08 03:07:31;;;;;;;12.38;6.82;;;;;;;15.18;84.25;95152.41;5091372;28;20252;-74
2022/09/08 03:09:57;;;;;;;11.05;5.93;;;;;;;15.15;84.20;95147.53;5091525;28;20659;-75
2022/09/08 03:12:26;;;;;;;8.77;5.35;;;;;;;15.14;84.10;95157.34;5091586;28;20256;-74
2022/09/08 03:14:52;;;;;;;7.25;5.65;;;;;;;15.16;83.90;95157.13;5091395;28;20193;-74
2022/09/08 03:17:17;;;;;;;12.30;6.60;;;;;;;15.15;83.79;95152.84;5091482;28;20669;-74
2022/09/08 03:19:43;;;;;;;9.27;5.90;;;;;;;15.13;83.74;95155.75;5090851;28;20652;-74
2022/09/08 03:22:08;;;;;;;7.30;5.50;;;;;;;15.06;83.91;95141.78;5090828;28;20177;-75
2022/09/08 03:24:33;;;;;;;8.93;4.93;;;;;;;15.12;83.84;95162.09;5090600;28;20243;-74
2022/09/08 03:27:00;;;;;;;11.60;5.85;;;;;;;15.12;83.78;95159.44;5090737;28;20173;-74
2022/09/08 03:29:30;;;;;;;19.85;10.43;;;;;;;15.10;83.62;95162.31;5090247;28;20260;-75
2022/09/08 03:31:56;;;;;;;16.30;10.75;;;;;;;15.04;84.16;95162.44;5090320;28;20178;-74
2022/09/08 03:34:22;;;;;;;10.80;6.78;;;;;;;15.05;84.14;95164.84;5090263;28;20220;-74
2022/09/08 03:36:47;;;;;;;13.77;7.70;;;;;;;15.02;84.13;95172.47;5090585;28;20409;-75
2022/09/08 03:39:13;;;;;;;19.57;7.63;;;;;;;15.00;83.75;95163.94;5090451;28;20217;-74
2022/09/08 03:41:38;;;;;;;8.67;5.00;;;;;;;14.92;84.15;95162.44;5085120;28;20246;-74
2022/09/08 03:44:03;;;;;;;24.25;10.50;;;;;;;14.92;84.06;95164.28;5089787;28;21073;-74
2022/09/08 03:46:29;;;;;;;16.13;6.53;;;;;;;14.93;83.90;95166.69;5090152;28;20205;-74
2022/09/08 03:48:54;;;;;;;19.27;9.43;;;;;;;14.90;84.19;95166.34;5090417;28;20176;-74
2022/09/08 03:51:24;;;;;;;14.50;6.90;;;;;;;14.86;84.23;95165.19;5090160;28;20174;-74
2022/09/08 03:53:51;;;;;;;27.67;13.43;;;;;;;14.87;84.36;95164.97;5088246;28;20174;-74
2022/09/08 03:56:16;;;;;;;14.53;8.83;;;;;;;14.88;84.27;95165.75;5086133;28;20182;-74
2022/09/08 03:58:43;;;;;;;22.40;14.10;;;;;;;14.91;84.40;95165.31;5084496;28;20247;-74
2022/09/08 04:01:14;;;;;;;10.73;5.73;;;;;;;14.73;84.00;95137.88;5078685;28;20202;-74
2022/09/08 04:03:40;;;;;;;17.63;7.43;;;;;;;14.89;83.83;95168.19;5088544;28;21038;-74
2022/09/08 04:06:06;;;;;;;19.83;11.07;;;;;;;14.91;84.32;95182.03;5081086;28;20295;-75
2022/09/08 04:08:32;;;;;;;13.57;7.90;;;;;;;14.90;84.16;95182.25;5089055;28;20185;-74
2022/09/08 04:10:58;;;;;;;12.10;6.57;;;;;;;14.89;83.68;95181.44;5089827;28;20183;-74
2022/09/08 04:13:24;;;;;;;16.35;8.00;;;;;;;14.88;84.28;95179.81;5090221;28;20178;-74
2022/09/08 04:15:50;;;;;;;16.70;7.27;;;;;;;14.77;84.58;95164.72;5089512;28;20264;-74
2022/09/08 04:18:15;;;;;;;16.25;7.38;;;;;;;14.86;84.19;95159.91;5088754;28;20182;-74
2022/09/08 04:20:41;;;;;;;9.37;6.00;;;;;;;14.99;83.79;95179.03;5088768;28;20177;-74
2022/09/08 04:23:08;;;;;;;11.97;5.70;;;;;;;15.06;83.35;95181.56;5089924;28;20181;-74
2022/09/08 04:25:33;;;;;;;17.00;7.03;;;;;;;15.06;83.08;95177.06;5089863;28;20209;-74
2022/09/08 04:27:59;;;;;;;11.63;6.80;;;;;;;15.07;83.18;95183.19;5088972;28;20212;-74
2022/09/08 04:30:24;;;;;;;16.27;6.37;;;;;;;15.06;83.25;95174.41;5088267;28;20201;-74
2022/09/08 04:32:49;;;;;;;14.47;5.93;;;;;;;15.02;82.75;95170.63;5088914;28;20645;-74
2022/09/08 04:35:15;;;;;;;14.47;7.20;;;;;;;15.03;82.83;95169.59;5089488;28;20181;-74
2022/09/08 04:37:40;;;;;;;13.33;6.27;;;;;;;15.15;82.48;95169.56;5088903;28;20568;-74
2022/09/08 04:40:07;;;;;;;15.07;7.43;;;;;;;15.17;82.25;95177.28;5076317;28;20642;-74
2022/09/08 04:42:33;;;;;;;11.45;7.00;;;;;;;15.15;82.57;95179.38;5069214;28;20186;-75
2022/09/08 04:44:59;;;;;;;14.23;6.10;;;;;;;15.09;82.21;95155.41;5068737;28;20206;-74
2022/09/08 04:47:25;;;;;;;18.23;6.10;;;;;;;15.30;81.89;95177.88;5070081;28;20962;-74
2022/09/08 04:49:52;;;;;;;12.85;7.10;;;;;;;15.41;81.72;95176.25;5069599;28;20190;-75
2022/09/08 04:52:20;;;;;;;12.93;5.82;;;;;;;15.54;81.51;95172.56;5070429;28;20552;-74
2022/09/08 04:54:45;;;;;;;12.32;7.22;;;;;;;15.70;81.58;95177.16;5073249;28;20173;-75
2022/09/08 04:57:11;;;;;;;7.90;5.85;;;;;;;15.86;80.56;95181.72;5072764;28;20204;-73
2022/09/08 04:59:37;;;;;;;10.90;5.70;;;;;;;16.02;80.29;95180.16;5073012;28;20712;-73
2022/09/08 05:02:02;;;;;;;14.45;7.53;;;;;;;16.23;79.30;95180.34;5073397;28;20241;-73
2022/09/08 05:04:28;;;;;;;16.60;7.43;;;;;;;16.53;79.98;95184.56;5073268;28;20209;-73
2022/09/08 05:06:53;;;;;;;15.35;6.53;;;;;;;16.67;77.69;95172.63;5073329;28;20216;-74
2022/09/08 05:09:19;;;;;;;14.00;6.10;;;;;;;17.09;76.67;95199.63;5073519;28;20645;-72
2022/09/08 05:11:44;;;;;;;14.50;6.63;;;;;;;17.44;75.09;95203.88;5072464;28;20174;-72
2022/09/08 05:14:10;;;;;;;12.82;6.65;;;;;;;17.76;73.87;95212.06;5072246;28;20189;-72
2022/09/08 05:16:36;;;;;;;15.32;5.18;;;;;;;18.09;72.12;95210.06;5072212;28;20596;-72
2022/09/08 05:19:04;;;;;;;14.50;8.15;;;;;;;18.45;71.58;95213.94;5072405;28;20178;-72
2022/09/08 05:21:32;;;;;;;14.23;5.82;;;;;;;18.80;69.82;95212.72;5072232;28;20182;-75
2022/09/08 05:24:00;;;;;;;10.75;5.28;;;;;;;18.97;69.18;95201.91;5072181;28;20221;-74
2022/09/08 05:26:26;;;;;;;11.95;7.47;;;;;;;19.21;68.28;95211.19;5072602;28;20182;-74
2022/09/08 05:28:52;;;;;;;10.50;6.35;;;;;;;19.38;66.48;95227.06;5055208;28;20178;-75
2022/09/08 05:31:24;;;;;;;11.88;6.03;;;;;;;19.58;65.90;95228.03;5073208;28;20182;-75
2022/09/08 05:33:50;;;;;;;16.50;7.65;;;;;;;19.81;64.57;95226.84;5073065;28;20181;-75
2022/09/08 05:36:19;;;;;;;10.85;6.70;;;;;;;19.99;63.90;95225.59;5073005;28;20669;-74
2022/09/08 05:38:45;;;;;;;8.55;5.18;;;;;;;20.19;63.71;95227.56;5078246;28;20232;-75
2022/09/08 05:41:11;;;;;;;8.30;4.50;;;;;;;20.41;63.26;95224.75;5093293;28;20176;-75
2022/09/08 05:43:38;;;;;;;6.75;4.47;;;;;;;20.64;61.39;95217.03;5093145;28;20189;-75
2022/09/08 05:46:04;;;;;;;7.22;4.68;;;;;;;20.83;60.32;95222.69;5093097;28;20184;-75
2022/09/08 05:48:30;;;;;;;8.05;4.80;;;;;;;20.96;59.73;95224.03;5093008;28;20165;-75
2022/09/08 05:50:56;;;;;;;10.90;5.10;;;;;;;21.13;59.72;95224.56;5093148;28;20288;-75
2022/09/08 05:53:22;;;;;;;9.23;4.90;;;;;;;21.30;58.71;95225.13;5093219;28;20173;-75
2022/09/08 05:55:56;;;;;;;10.18;4.88;;;;;;;21.49;59.22;95232.63;5092985;28;20173;-75
2022/09/08 05:58:22;;;;;;;8.75;4.80;;;;;;;21.58;59.36;95225.66;5092247;28;20184;-75
2022/09/08 06:00:53;;;;;;;12.07;5.50;;;;;;;21.75;58.90;95226.16;5092225;28;20177;-73
2022/09/08 06:03:19;;;;;;;11.75;5.38;;;;;;;21.83;58.42;95217.56;5092173;28;20687;-74
2022/09/08 06:05:44;;;;;;;17.13;7.50;;;;;;;21.99;57.94;95219.16;5091990;28;20204;-75
2022/09/08 06:08:09;;;;;;;9.10;5.28;;;;;;;22.19;57.41;95221.78;5092637;28;20331;-73
2022/09/08 06:10:37;;;;;;;8.95;5.07;;;;;;;22.40;57.78;95227.84;5092815;28;20181;-75
2022/09/08 06:13:03;;;;;;;10.63;5.63;;;;;;;22.65;56.23;95221.56;5092668;28;20255;-75
2022/09/08 06:15:29;;;;;;;10.60;5.05;;;;;;;22.76;55.77;95225.00;5092587;28;20252;-75
2022/09/08 06:17:54;;;;;;;9.93;4.95;;;;;;;22.87;54.80;95221.97;5092083;28;20203;-75
2022/09/08 06:20:20;;;;;;;6.35;4.70;;;;;;;23.09;54.89;95221.53;5092433;28;20182;-75
2022/09/08 06:22:45;;;;;;;10.57;4.53;;;;;;;23.23;52.47;95235.16;5092277;28;20754;-75
2022/09/08 06:25:11;;;;;;;9.60;6.10;;;;;;;23.19;52.71;95229.53;5092418;28;20676;-75
2022/09/08 06:27:45;;;;;;;11.18;4.60;;;;;;;23.07;53.27;95231.78;5092247;28;20188;-75
2022/09/08 06:30:14;;;;;;;7.20;5.03;;;;;;;23.22;53.69;95230.88;5092498;28;20311;-74
2022/09/08 06:32:59;;;;;;;10.80;5.45;;;;;;;23.55;52.16;95232.75;5092207;28;20196;-73
2022/09/08 06:35:34;;;;;;;7.43;5.20;;;;;;;23.65;52.14;95229.97;5091820;28;20174;-73
2022/09/08 06:38:04;;;;;;;14.45;5.47;;;;;;;23.80;54.04;95244.34;5083886;28;20201;-73
2022/09/08 06:40:40;;;;;;;10.35;5.35;;;;;;;24.21;51.67;95245.59;5092009;28;20226;-73
2022/09/08 06:43:20;;;;;;;8.38;5.32;;;;;;;24.44;50.75;95242.06;5092077;28;20268;-73
2022/09/08 06:45:50;;;;;;;13.05;5.10;;;;;;;24.70;50.35;95241.72;5091804;28;20567;-73
2022/09/08 06:48:29;;;;;;;7.63;4.00;;;;;;;24.90;49.29;95244.16;5091997;28;20177;-75
2022/09/08 06:51:11;;;;;;;9.88;4.32;;;;;;;24.90;48.14;95248.75;5091949;28;20170;-75
2022/09/08 06:54:03;;;;;;;8.60;4.10;;;;;;;25.12;49.04;95254.38;5091892;28;20678;-73
2022/09/08 06:56:51;;;;;;;9.63;4.82;;;;;;;25.53;48.08;95259.91;5091804;28;20583;-74
2022/09/08 06:59:50;;;;;;;9.57;3.85;;;;;;;25.96;47.39;95247.06;5091864;28;20174;-74
2022/09/08 07:02:33;;;;;;;14.93;3.90;;;;;;;26.22;44.55;95250.06;5072302;28;20182;-73
2022/09/08 07:05:28;;;;;;;6.80;3.90;;;;;;;26.03;45.01;95252.88;5091665;28;20201;-73
2022/09/08 07:07:58;;;;;;;11.30;4.20;;;;;;;25.88;47.54;95251.25;5091603;28;20611;-73
2022/09/08 07:10:36;;;;;;;10.05;4.50;;;;;;;25.97;47.51;95247.84;5091496;28;20267;-73
2022/09/08 07:13:21;;;;;;;11.90;3.97;;;;;;;25.86;45.74;95250.72;5073610;28;20239;-73
2022/09/08 07:15:56;;;;;;;5.07;4.40;;;;;;;25.91;46.65;95247.97;5091064;28;20169;-73
2022/09/08 07:18:28;;;;;;;7.88;4.15;;;;;;;26.16;48.10;95251.28;5091107;28;20173;-73
2022/09/08 07:21:11;;;;;;;9.95;4.05;;;;;;;26.28;45.15;95257.84;5091419;28;20174;-73
2022/09/08 07:23:38;;;;;;;10.20;3.67;;;;;;;26.20;45.36;95263.09;5082933;28;20285;-73
2022/09/08 07:26:08;;;;;;;8.10;4.07;;;;;;;25.59;44.46;95226.41;5091219;28;20169;-74
2022/09/08 07:28:43;;;;;;;9.18;3.63;;;;;;;25.32;46.57;95258.66;5091427;28;20177;-73
2022/09/08 07:31:19;;;;;;;9.80;3.67;;;;;;;25.27;46.87;95256.81;5091690;28;20181;-74
2022/09/08 07:33:49;;;;;;;4.15;3.22;;;;;;;25.15;46.63;95246.50;5091529;28;20319;-74
2022/09/08 07:36:15;;;;;;;5.32;3.40;;;;;;;25.14;45.14;95250.28;5072879;28;20165;-73
2022/09/08 07:39:00;;;;;;;11.40;3.80;;;;;;;25.08;46.60;95251.44;5090915;28;20602;-74
2022/09/08 07:41:47;;;;;;;5.47;3.63;;;;;;;25.07;47.00;95257.94;5091696;28;20169;-74
2022/09/08 07:44:18;;;;;;;10.60;3.97;;;;;;;25.11;46.86;95253.56;5091598;28;20201;-77
2022/09/08 07:47:17;;;;;;;6.57;4.03;;;;;;;25.07;48.09;95244.47;5090958;28;20189;-75
2022/09/08 07:49:45;;;;;;;9.10;3.95;;;;;;;24.86;46.81;95242.31;5092223;28;20273;-79
2022/09/08 07:52:29;;;;;;;9.98;4.30;;;;;;;24.52;48.91;95242.50;5092210;28;20192;-78
2022/09/08 07:54:55;;;;;;;9.57;4.00;;;;;;;24.11;50.61;95242.16;5091251;28;20615;-75
2022/09/08 07:57:55;;;;;;;6.60;3.83;;;;;;;24.20;49.76;95208.16;5091506;28;20253;-75
2022/09/08 08:00:30;;;;;;;11.00;4.10;;;;;;;24.56;47.76;95235.47;5037952;28;20224;-78
2022/09/08 08:03:28;;;;;;;8.30;3.55;;;;;;;24.53;48.97;95226.06;5091328;28;20196;-74
2022/09/08 08:05:59;;;;;;;9.48;3.95;;;;;;;24.73;48.55;95230.38;5091389;28;20181;-74
2022/09/08 08:08:49;;;;;;;9.27;3.28;;;;;;;24.69;46.78;95232.03;5087365;28;20271;-73
2022/09/08 08:11:25;;;;;;;7.38;3.22;;;;;;;24.34;46.95;95242.19;5090641;28;20170;-73
2022/09/08 08:14:20;;;;;;;8.85;3.50;;;;;;;24.16;47.68;95236.72;5089833;28;20173;-73
2022/09/08 08:16:51;;;;;;;7.15;3.53;;;;;;;24.18;49.38;95239.94;5090393;28;20235;-75
2022/09/08 08:19:37;;;;;;;8.05;4.05;;;;;;;24.82;48.39;95242.88;5088975;28;20180;-73
2022/09/08 08:22:15;;;;;;;8.55;3.90;;;;;;;25.60;48.48;95244.19;5096585;28;20176;-73
2022/09/08 08:24:56;;;;;;;7.03;3.65;;;;;;;26.04;46.90;95237.47;5088043;28;20219;-73
2022/09/08 08:27:35;;;;;;;7.25;3.38;;;;;;;26.33;44.17;95239.91;5090119;28;20189;-73
2022/09/08 08:30:22;;;;;;;8.90;3.47;;;;;;;26.41;43.95;95233.81;5094311;28;20187;-74
2022/09/08 08:32:54;;;;;;;10.57;3.80;;;;;;;26.13;45.83;95216.78;5093617;28;20653;-73
2022/09/08 08:35:44;;;;;;;7.00;3.60;;;;;;;25.67;45.50;95236.53;5093333;28;20656;-73
2022/09/08 08:38:20;;;;;;;7.63;3.95;;;;;;;25.43;47.05;95223.13;5093398;28;20174;-74
2022/09/08 08:40:57;;;;;;;6.47;4.18;;;;;;;24.89;48.25;95220.19;5075436;28;20185;-73
2022/09/08 08:43:28;;;;;;;3.58;3.28;;;;;;;24.78;48.96;95209.56;5093349;28;20177;-73
2022/09/08 08:46:18;;;;;;;9.18;3.50;;;;;;;24.89;50.75;95210.22;5093966;28;20724;-73
2022/09/08 08:49:04;;;;;;;5.03;3.38;;;;;;;25.03;50.04;95208.41;5094200;28;20174;-74
2022/09/08 08:51:57;;;;;;;6.10;3.95;;;;;;;24.82;51.99;95207.88;5094251;28;20185;-74
2022/09/08 08:54:50;;;;;;;8.60;4.05;;;;;;;24.94;49.67;95204.78;5094378;28;20185;-74
2022/09/08 08:57:30;;;;;;;10.05;4.20;;;;;;;25.03;51.05;95204.91;5094124;28;20178;-73
2022/09/08 09:00:18;;;;;;;10.57;3.72;;;;;;;24.98;49.64;95199.63;5094249;28;20188;-74
2022/09/08 09:03:01;;;;;;;8.00;3.92;;;;;;;25.09;50.17;95192.97;5093926;28;20174;-74
2022/09/08 09:05:41;;;;;;;7.53;3.80;;;;;;;25.21;48.94;95182.53;5094086;28;20209;-73
2022/09/08 09:08:25;;;;;;;6.63;3.72;;;;;;;25.24;48.33;95178.47;5093742;28;20173;-73
2022/09/08 09:11:17;;;;;;;5.70;3.88;;;;;;;25.40;47.74;95182.50;5093265;28;20174;-73
2022/09/08 09:14:20;;;;;;;8.02;4.00;;;;;;;25.48;46.11;95173.72;5046038;28;20186;-73
2022/09/08 09:17:00;;;;;;;7.43;3.55;;;;;;;25.51;46.87;95165.81;5093492;28;20252;-73
2022/09/08 09:19:47;;;;;;;8.00;3.90;;;;;;;25.73;47.62;95167.91;5093408;28;20169;-73
2022/09/08 09:22:25;;;;;;;8.23;4.00;;;;;;;25.74;46.47;95160.59;5093709;28;20204;-74
2022/09/08 09:25:12;;;;;;;9.57;4.45;;;;;;;25.50;47.71;95152.66;5093637;28;20189;-74
2022/09/08 09:27:55;;;;;;;6.07;3.60;;;;;;;25.56;48.74;95146.06;5093749;28;20187;-74
2022/09/08 09:30:33;;;;;;;6.22;4.20;;;;;;;25.76;46.76;95140.34;5093711;28;20260;-74
2022/09/08 09:33:24;;;;;;;7.75;3.97;;;;;;;25.81;45.95;95137.53;5093651;28;20170;-74
2022/09/08 09:35:49;;;;;;;4.40;3.20;;;;;;;25.79;47.15;95136.22;5093678;28;21043;-74
2022/09/08 09:38:30;;;;;;;9.13;3.22;;;;;;;25.94;46.55;95127.84;5093062;28;20220;-74
2022/09/08 09:41:31;;;;;;;6.25;3.40;;;;;;;26.13;45.77;95133.09;5093443;28;20201;-76
2022/09/08 09:44:16;;;;;;;4.07;3.15;;;;;;;26.24;45.62;95139.91;5093581;28;20232;-73
2022/09/08 09:47:14;;;;;;;3.70;2.95;;;;;;;26.29;46.37;95123.63;5092414;28;20559;-74
2022/09/08 09:50:06;;;;;;;5.57;3.03;;;;;;;26.16;45.12;95098.22;5051611;28;20202;-74
2022/09/08 09:52:53;;;;;;;6.40;3.53;;;;;;;26.08;47.58;95119.72;5093191;28;20174;-73
2022/09/08 09:55:49;;;;;;;9.75;4.28;;;;;;;25.98;46.35;95109.94;5093181;28;20181;-73
2022/09/08 09:58:41;;;;;;;6.75;3.00;;;;;;;25.78;47.77;95110.34;5092925;28;20185;-73
2022/09/08 10:01:29;;;;;;;4.20;3.40;;;;;;;25.61;46.18;95100.16;5054237;28;20190;-73
2022/09/08 10:04:13;;;;;;;7.45;3.70;;;;;;;25.68;46.17;95102.47;5092832;28;20193;-74
2022/09/08 10:06:44;;;;;;;8.23;3.67;;;;;;;25.70;48.05;95092.97;5092891;28;20178;-74
2022/09/08 10:09:16;;;;;;;4.90;2.97;;;;;;;25.81;47.40;95094.34;5092677;28;20181;-75
2022/09/08 10:12:03;;;;;;;6.07;3.88;;;;;;;25.89;46.06;95085.56;5092953;28;20625;-76
2022/09/08 10:15:05;;;;;;;5.50;4.00;;;;;;;25.68;46.22;95076.28;5092863;28;20181;-74
2022/09/08 10:18:15;;;;;;;4.85;3.38;;;;;;;25.67;46.12;95074.69;5092398;28;20209;-74
2022/09/08 10:20:58;;;;;;;6.70;3.20;;;;;;;25.67;46.64;95072.00;4991230;28;20207;-74
2022/09/08 10:23:58;;;;;;;7.18;4.00;;;;;;;25.83;47.66;95075.97;4991180;28;20181;-74
2022/09/08 10:26:35;;;;;;;5.35;3.88;;;;;;;25.88;46.35;95065.06;5077917;28;20200;-75
2022/09/08 10:29:36;;;;;;;4.60;3.40;;;;;;;25.85;46.68;95063.00;5093133;28;20965;-74
2022/09/08 10:32:10;;;;;;;5.38;3.50;;;;;;;25.67;47.16;95055.81;5092521;28;20174;-74
2022/09/08 10:35:07;;;;;;;4.95;3.50;;;;;;;25.56;47.11;95038.19;5092709;28;20177;-74
2022/09/08 10:37:54;;;;;;;6.30;4.28;;;;;;;25.69;47.16;95052.78;5092373;28;20545;-74
2022/09/08 10:40:34;;;;;;;6.18;3.95;;;;;;;25.63;47.73;95043.22;5092388;28;20662;-75
2022/09/08 10:43:35;;;;;;;5.30;3.25;;;;;;;25.73;48.47;95043.81;5092641;28;20181;-75
2022/09/08 10:46:19;;;;;;;4.95;3.30;;;;;;;25.84;47.00;95049.81;5092120;28;20227;-75
2022/09/08 10:49:18;;;;;;;7.32;3.80;;;;;;;25.84;47.66;95049.81;5092265;28;20177;-75
2022/09/08 10:52:05;;;;;;;11.48;3.90;;;;;;;25.82;47.45;95047.41;5073134;28;20617;-74
2022/09/08 10:55:06;;;;;;;4.75;3.53;;;;;;;25.93;46.85;95040.69;5073771;28;20212;-75
2022/09/08 10:57:49;;;;;;;7.55;3.63;;;;;;;25.87;47.04;95036.50;5057366;28;20225;-75
2022/09/08 11:00:23;;;;;;;7.82;4.00;;;;;;;25.77;47.15;95035.94;5091852;28;20260;-75
2022/09/08 11:03:26;;;;;;;6.20;4.35;;;;;;;25.80;48.84;95038.81;5091712;28;20653;-75
2022/09/08 11:06:14;;;;;;;6.45;3.75;;;;;;;25.91;47.88;95036.69;5076130;28;20330;-75
2022/09/08 11:09:05;;;;;;;7.38;3.60;;;;;;;25.87;47.38;95030.28;5091822;28;20173;-74
2022/09/08 11:11:57;;;;;;;6.03;3.72;;;;;;;26.05;49.20;95020.47;5073532;28;20535;-74
2022/09/08 11:15:01;;;;;;;9.73;4.53;;;;;;;26.25;46.49;95022.72;5091659;28;20261;-74
2022/09/08 11:17:58;;;;;;;5.63;3.75;;;;;;;26.38;49.02;95011.09;5053155;28;20204;-73
2022/09/08 11:20:39;;;;;;;5.35;3.95;;;;;;;26.54;46.07;95017.75;5090616;28;20200;-74
2022/09/08 11:24:02;;;;;;;4.95;4.32;;;;;;;26.47;45.89;95005.75;5088921;28;20213;-74
2022/09/08 11:26:39;;;;;;;5.30;4.15;;;;;;;26.50;46.33;95014.03;4989231;28;20288;-74
2022/09/08 11:29:14;;;;;;;5.88;3.55;;;;;;;26.51;46.56;95010.25;4987575;28;20177;-74
2022/09/08 11:32:08;;;;;;;4.88;3.70;;;;;;;26.52;46.09;95019.94;5063607;28;20201;-74
2022/09/08 11:35:01;;;;;;;11.43;4.00;;;;;;;26.28;47.11;95019.44;5089427;28;20176;-74
2022/09/08 11:37:36;;;;;;;4.15;3.65;;;;;;;26.36;47.10;95016.00;5072376;28;20272;-74
2022/09/08 11:40:16;;;;;;;6.30;4.03;;;;;;;26.46;46.58;95013.06;5090487;28;20221;-74
2022/09/08 11:42:50;;;;;;;7.72;4.55;;;;;;;26.60;46.96;95016.50;5090489;28;20211;-74
2022/09/08 11:45:34;;;;;;;6.05;3.95;;;;;;;26.79;45.62;95016.31;5090493;28;20188;-74
2022/09/08 11:48:14;;;;;;;7.40;3.80;;;;;;;26.91;46.65;95023.84;5090315;28;20179;-74
2022/09/08 11:50:58;;;;;;;6.50;3.65;;;;;;;26.73;45.60;95016.72;5090498;28;20687;-74
2022/09/08 11:53:35;;;;;;;6.13;3.85;;;;;;;26.75;46.43;95015.31;5090644;28;20680;-73
2022/09/08 11:56:03;;;;;;;7.75;3.45;;;;;;;26.88;46.83;95008.25;5090326;28;20181;-73
2022/09/08 11:58:46;;;;;;;6.90;3.65;;;;;;;27.03;47.91;95014.09;5071939;28;20182;-73
2022/09/08 12:01:29;;;;;;;5.93;4.53;;;;;;;27.19;47.55;95017.16;5090196;28;20327;-76
2022/09/08 12:04:07;;;;;;;4.93;3.58;;;;;;;27.33;46.79;95009.75;5090224;28;20273;-74
2022/09/08 12:07:09;;;;;;;9.23;3.92;;;;;;;27.43;45.51;95011.38;5090334;28;20212;-74